This is the latest recevied weather packets stored in our database for station/object 9W2BQV-1. If no packets are shown the sender has not sent any weather packets the latest 10 day(s).
| Time | Temp. | Humidity | Pressure | Rain* | Wind** | Luminosity | Snow |
|---|---|---|---|---|---|---|---|
| 1788165942 | 116° F | 34% | 757 mmHg | - | - | - | - |
| 1788164141 | 116° F | 34% | 757.1 mmHg | - | - | - | - |
| 1788162340 | 119° F | 34% | 757.2 mmHg | - | - | - | - |
| 1788160540 | 119° F | 34% | 757.4 mmHg | - | - | - | - |
| 1788158739 | 118° F | 35% | 757.9 mmHg | - | - | - | - |
| 1788156938 | 117° F | 36% | 758.2 mmHg | - | - | - | - |
| 1788155137 | 117° F | 36% | 758.5 mmHg | - | - | - | - |
| 1788153336 | 114° F | 38% | 758.9 mmHg | - | - | - | - |
| 1788151536 | 113° F | 40% | 759.2 mmHg | - | - | - | - |
| 1788149735 | 110° F | 43% | 759.7 mmHg | - | - | - | - |
| 1788146255 | 105° F | 46% | 760 mmHg | - | - | - | - |
| 1788144454 | 104° F | 48% | 760.2 mmHg | - | - | - | - |
| 1788142653 | 102° F | 51% | 760.3 mmHg | - | - | - | - |
| 1788105386 | 100° F | 47% | 760 mmHg | - | - | - | - |
| 1788103586 | 99° F | 48% | 759.7 mmHg | - | - | - | - |
| 1788101785 | 99° F | 48% | 759.5 mmHg | - | - | - | - |
| 1788099984 | 100° F | 48% | 759.4 mmHg | - | - | - | - |
| 1788096401 | 100° F | 47% | 759 mmHg | - | - | - | - |
| 1788094600 | 102° F | 45% | 758.8 mmHg | - | - | - | - |
| 1788092799 | 101° F | 45% | 758.2 mmHg | - | - | - | - |
| 1788090998 | 103° F | 43% | 758.3 mmHg | - | - | - | - |
| 1788089197 | 103° F | 42% | 758 mmHg | - | - | - | - |
| 1788087396 | 106° F | 40% | 757.5 mmHg | - | - | - | - |
| 1788085595 | 111° F | 35% | 757.2 mmHg | - | - | - | - |
| 1788083795 | 116° F | 34% | 756.6 mmHg | - | - | - | - |
* Rain since midnight (hover to see other rain measurements)
** Current wind speed in m/s (hover to see current wind gust speed)